Time;durP1;ratioP1;P1;durP2;ratioP2;P2;SDS_P1;SDS_P2;PMS_P1;PMS_P2;Temp;Humidity;BMP_temperature;BMP_pressure;BME280_temperature;BME280_humidity;BME280_pressure;Samples;Min_cycle;Max_cycle;Signal;HPM_P1;HPM_P2
2023/07/02 00:00:31;;;;;;;;;46.00;37.67;;;;;;;;5081270;28;45280;-73
2023/07/02 00:02:57;;;;;;;;;50.00;41.00;;;;;;;;5062748;28;47100;-72
2023/07/02 00:05:22;;;;;;;;;48.33;38.67;;;;;;;;5080438;28;45493;-72
2023/07/02 00:07:47;;;;;;;;;46.67;36.33;;;;;;;;5062194;28;45367;-72
2023/07/02 00:10:12;;;;;;;;;48.67;39.67;;;;;;;;5081210;28;45302;-72
2023/07/02 00:12:37;;;;;;;;;45.33;37.67;;;;;;;;5080847;28;45471;-72
2023/07/02 00:15:03;;;;;;;;;46.33;37.00;;;;;;;;5081165;28;45204;-72
2023/07/02 00:17:29;;;;;;;;;46.00;38.00;;;;;;;;5062881;28;45352;-71
2023/07/02 00:19:54;;;;;;;;;49.33;40.00;;;;;;;;5062482;28;45975;-73
2023/07/02 00:22:19;;;;;;;;;46.00;38.33;;;;;;;;5080818;28;46112;-73
2023/07/02 00:24:45;;;;;;;;;46.33;38.33;;;;;;;;5080752;28;45338;-71
2023/07/02 00:27:10;;;;;;;;;49.33;40.00;;;;;;;;5080755;28;45346;-72
2023/07/02 00:29:35;;;;;;;;;46.67;39.33;;;;;;;;5062223;28;46216;-72
2023/07/02 00:32:00;;;;;;;;;51.00;40.67;;;;;;;;5062464;28;47934;-72
2023/07/02 00:34:26;;;;;;;;;47.67;40.00;;;;;;;;5080815;28;45329;-72
2023/07/02 00:36:51;;;;;;;;;49.00;40.00;;;;;;;;5080694;28;45308;-72
2023/07/02 00:39:17;;;;;;;;;46.00;38.67;;;;;;;;5080613;28;45310;-72
2023/07/02 00:41:46;;;;;;;;;46.67;39.00;;;;;;;;5080581;28;46277;-72
2023/07/02 00:44:11;;;;;;;;;46.67;39.33;;;;;;;;5079863;28;45513;-73
2023/07/02 00:46:36;;;;;;;;;48.00;38.33;;;;;;;;5080543;28;45277;-72
2023/07/02 00:49:04;;;;;;;;;33.33;29.33;;;;;;;;5080525;28;45283;-72
2023/07/02 00:51:29;;;;;;;;;54.33;42.67;;;;;;;;5061487;28;47135;-72
2023/07/02 00:53:55;;;;;;;;;49.33;40.67;;;;;;;;5080189;28;45342;-72
2023/07/02 00:56:21;;;;;;;;;45.00;37.33;;;;;;;;5080422;28;45325;-72
2023/07/02 00:58:48;;;;;;;;;47.00;37.67;;;;;;;;5061861;28;46509;-71
2023/07/02 01:01:17;;;;;;;;;49.00;38.00;;;;;;;;5080503;28;45315;-72
2023/07/02 01:04:01;;;;;;;;;46.00;36.33;;;;;;;;5080109;28;45359;-72
2023/07/02 01:06:28;;;;;;;;;45.33;37.67;;;;;;;;5079895;28;45280;-71
2023/07/02 01:08:54;;;;;;;;;45.67;37.67;;;;;;;;5061505;28;46064;-71
2023/07/02 01:11:21;;;;;;;;;45.67;36.67;;;;;;;;5080046;28;45313;-71
2023/07/02 01:13:46;;;;;;;;;47.00;38.00;;;;;;;;5061536;28;45338;-71
2023/07/02 01:16:11;;;;;;;;;47.00;37.67;;;;;;;;5061997;28;45337;-71
2023/07/02 01:18:38;;;;;;;;;50.00;40.67;;;;;;;;5080054;28;45259;-71
2023/07/02 01:21:06;;;;;;;;;45.00;36.67;;;;;;;;5079891;28;45380;-71
2023/07/02 01:23:31;;;;;;;;;45.67;38.00;;;;;;;;5079980;28;45220;-71
2023/07/02 01:25:58;;;;;;;;;46.67;38.67;;;;;;;;5080033;28;45516;-71
2023/07/02 01:28:23;;;;;;;;;46.67;37.67;;;;;;;;5061468;28;46913;-71
2023/07/02 01:30:49;;;;;;;;;47.00;37.00;;;;;;;;5079779;28;46022;-72
2023/07/02 01:33:14;;;;;;;;;46.67;37.67;;;;;;;;5079882;28;45473;-71
2023/07/02 01:35:39;;;;;;;;;46.33;37.33;;;;;;;;5079894;28;45244;-71
2023/07/02 01:38:04;;;;;;;;;42.00;36.33;;;;;;;;5079841;28;45323;-71
2023/07/02 01:40:29;;;;;;;;;45.00;36.67;;;;;;;;5079654;28;46015;-71
2023/07/02 01:42:54;;;;;;;;;49.00;39.33;;;;;;;;5079459;28;45296;-71
2023/07/02 01:45:20;;;;;;;;;42.67;37.00;;;;;;;;5079448;28;45279;-72
2023/07/02 01:47:45;;;;;;;;;45.00;38.00;;;;;;;;5079784;28;45286;-71
2023/07/02 01:50:10;;;;;;;;;45.33;37.00;;;;;;;;5079611;28;45442;-71
2023/07/02 01:52:35;;;;;;;;;48.00;37.67;;;;;;;;5061159;28;45350;-71
2023/07/02 01:55:01;;;;;;;;;43.67;36.00;;;;;;;;5061548;28;45275;-71
2023/07/02 01:57:26;;;;;;;;;40.33;32.67;;;;;;;;5079306;28;45346;-71
2023/07/02 01:59:51;;;;;;;;;43.67;37.00;;;;;;;;5079382;28;45489;-71
2023/07/02 02:02:16;;;;;;;;;48.67;38.00;;;;;;;;5079442;28;45277;-71
2023/07/02 02:04:41;;;;;;;;;48.00;38.00;;;;;;;;5081283;28;45299;-71
2023/07/02 02:07:07;;;;;;;;;41.00;35.00;;;;;;;;5082980;28;45458;-71
2023/07/02 02:09:32;;;;;;;;;50.00;40.00;;;;;;;;5064491;28;48077;-71
2023/07/02 02:11:57;;;;;;;;;51.67;42.33;;;;;;;;5083065;28;45255;-71
2023/07/02 02:14:23;;;;;;;;;61.25;47.50;;;;;;;;5083150;28;45526;-71
2023/07/02 02:16:48;;;;;;;;;55.75;45.50;;;;;;;;5082913;28;45390;-71
2023/07/02 02:19:16;;;;;;;;;59.50;47.75;;;;;;;;5082816;28;45404;-71
2023/07/02 02:21:41;;;;;;;;;53.75;44.50;;;;;;;;5082872;28;45318;-71
2023/07/02 02:24:07;;;;;;;;;56.00;44.75;;;;;;;;5082884;28;45338;-71
2023/07/02 02:26:32;;;;;;;;;50.00;39.50;;;;;;;;5082784;28;45208;-71
2023/07/02 02:28:58;;;;;;;;;55.00;43.75;;;;;;;;5088271;27;46122;-71
2023/07/02 02:31:23;;;;;;;;;49.33;39.33;;;;;;;;5103147;27;45297;-71
2023/07/02 02:33:48;;;;;;;;;48.00;39.33;;;;;;;;5103454;27;45407;-71
2023/07/02 02:36:13;;;;;;;;;48.33;38.00;;;;;;;;5102912;27;45252;-72
2023/07/02 02:38:39;;;;;;;;;44.00;37.00;;;;;;;;5103098;27;45320;-71
2023/07/02 02:41:04;;;;;;;;;46.33;38.00;;;;;;;;5103107;27;45340;-71
2023/07/02 02:43:29;;;;;;;;;47.00;38.00;;;;;;;;5084262;27;45408;-71
2023/07/02 02:45:55;;;;;;;;;46.00;39.67;;;;;;;;5102866;27;45480;-71
2023/07/02 02:48:22;;;;;;;;;46.67;37.00;;;;;;;;5102958;27;45300;-71
2023/07/02 02:50:48;;;;;;;;;41.67;35.00;;;;;;;;5102849;27;45336;-72
2023/07/02 02:53:13;;;;;;;;;45.33;37.33;;;;;;;;5102844;27;45347;-71
2023/07/02 02:55:38;;;;;;;;;39.67;34.00;;;;;;;;5102706;27;45639;-71
2023/07/02 02:58:04;;;;;;;;;45.67;37.33;;;;;;;;5102520;27;45546;-72
2023/07/02 03:00:29;;;;;;;;;47.33;38.33;;;;;;;;5102755;27;45334;-72
2023/07/02 03:02:55;;;;;;;;;47.67;37.33;;;;;;;;5102807;27;45328;-72
2023/07/02 03:05:20;;;;;;;;;49.67;39.33;;;;;;;;5102401;27;45344;-72
2023/07/02 03:07:45;;;;;;;;;33.67;30.33;;;;;;;;5084256;27;48037;-72
2023/07/02 03:10:11;;;;;;;;;48.67;38.67;;;;;;;;5102696;27;45325;-72
2023/07/02 03:12:36;;;;;;;;;46.33;38.33;;;;;;;;5102455;27;45278;-72
2023/07/02 03:15:02;;;;;;;;;48.33;39.00;;;;;;;;5083460;27;46983;-72
2023/07/02 03:17:30;;;;;;;;;50.00;42.00;;;;;;;;5102490;27;46149;-73
2023/07/02 03:19:55;;;;;;;;;41.75;34.00;;;;;;;;5083979;27;45621;-72
2023/07/02 03:22:21;;;;;;;;;46.67;39.00;;;;;;;;5102287;27;45316;-72
2023/07/02 03:24:46;;;;;;;;;48.33;39.67;;;;;;;;5102381;27;45405;-73
2023/07/02 03:27:11;;;;;;;;;52.25;42.25;;;;;;;;5102113;27;45410;-72
2023/07/02 03:29:38;;;;;;;;;47.67;40.33;;;;;;;;5090857;27;45330;-72
2023/07/02 03:32:03;;;;;;;;;49.00;39.67;;;;;;;;5063799;28;45327;-72
2023/07/02 03:34:28;;;;;;;;;45.33;36.67;;;;;;;;5081596;28;45414;-72
2023/07/02 03:36:53;;;;;;;;;46.33;38.00;;;;;;;;5081607;28;45327;-72
2023/07/02 03:39:19;;;;;;;;;50.00;40.00;;;;;;;;5081632;28;45339;-72
2023/07/02 03:41:44;;;;;;;;;45.67;38.33;;;;;;;;5063374;28;45321;-72
2023/07/02 03:44:09;;;;;;;;;46.00;37.67;;;;;;;;5080895;28;45417;-72
2023/07/02 03:46:35;;;;;;;;;46.00;36.67;;;;;;;;5063086;28;47364;-73
2023/07/02 03:49:00;;;;;;;;;44.00;37.00;;;;;;;;5081513;28;45228;-73
2023/07/02 03:51:25;;;;;;;;;44.00;35.67;;;;;;;;5081556;28;45300;-72
2023/07/02 03:53:50;;;;;;;;;42.00;33.33;;;;;;;;5063143;28;46170;-72
2023/07/02 03:56:15;;;;;;;;;39.00;32.67;;;;;;;;5081315;28;46263;-72
2023/07/02 03:58:41;;;;;;;;;40.67;34.67;;;;;;;;5081024;28;45300;-72
2023/07/02 04:01:06;;;;;;;;;44.67;34.67;;;;;;;;5081539;28;45621;-72
2023/07/02 04:03:31;;;;;;;;;45.00;38.00;;;;;;;;5081289;28;45578;-72
2023/07/02 04:05:56;;;;;;;;;39.33;33.00;;;;;;;;5062690;28;47956;-72
2023/07/02 04:08:22;;;;;;;;;42.00;34.33;;;;;;;;5062902;28;45315;-73
2023/07/02 04:10:47;;;;;;;;;35.00;31.00;;;;;;;;5081355;28;45348;-73
2023/07/02 04:13:12;;;;;;;;;44.00;35.33;;;;;;;;5080937;28;45307;-72
2023/07/02 04:15:38;;;;;;;;;40.00;33.33;;;;;;;;5081003;28;45184;-73
2023/07/02 04:18:03;;;;;;;;;37.67;33.00;;;;;;;;5081021;28;45251;-72
2023/07/02 04:20:28;;;;;;;;;36.33;33.00;;;;;;;;5061996;28;45294;-72
2023/07/02 04:22:54;;;;;;;;;36.67;31.00;;;;;;;;5062340;28;46053;-72
2023/07/02 04:25:19;;;;;;;;;34.67;31.00;;;;;;;;5080813;28;46318;-73
2023/07/02 04:27:44;;;;;;;;;38.00;32.33;;;;;;;;5061434;28;45259;-72
2023/07/02 04:30:14;;;;;;;;;38.00;30.67;;;;;;;;5096786;27;45255;-72
2023/07/02 04:32:39;;;;;;;;;36.67;32.00;;;;;;;;5087371;27;45255;-73
2023/07/02 04:35:05;;;;;;;;;36.67;32.00;;;;;;;;5060253;28;45299;-72
2023/07/02 04:37:30;;;;;;;;;33.00;28.33;;;;;;;;5060350;28;45363;-72
2023/07/02 04:39:55;;;;;;;;;36.00;31.00;;;;;;;;5060666;28;45609;-72
2023/07/02 04:42:21;;;;;;;;;36.33;32.00;;;;;;;;5059992;28;45492;-72
2023/07/02 04:44:46;;;;;;;;;34.67;30.67;;;;;;;;5060070;28;46401;-72
2023/07/02 04:47:11;;;;;;;;;36.00;32.33;;;;;;;;5060405;28;45264;-72
2023/07/02 04:49:37;;;;;;;;;30.33;28.67;;;;;;;;5042294;28;45281;-72
2023/07/02 04:52:02;;;;;;;;;40.00;32.67;;;;;;;;5060230;28;45227;-72
2023/07/02 04:54:28;;;;;;;;;30.33;28.33;;;;;;;;5060102;28;45229;-73
2023/07/02 04:56:53;;;;;;;;;38.33;33.33;;;;;;;;5060209;28;45272;-72
2023/07/02 04:59:20;;;;;;;;;39.00;32.00;;;;;;;;5060417;28;45278;-72
2023/07/02 05:01:45;;;;;;;;;35.67;31.00;;;;;;;;5060146;28;45321;-72
2023/07/02 05:04:11;;;;;;;;;37.00;32.33;;;;;;;;5059928;28;46115;-72
2023/07/02 05:06:36;;;;;;;;;37.00;31.00;;;;;;;;5041697;28;45373;-72
2023/07/02 05:09:01;;;;;;;;;37.00;30.67;;;;;;;;5042187;28;45307;-72
2023/07/02 05:11:26;;;;;;;;;31.67;29.67;;;;;;;;5058521;28;46326;-72
2023/07/02 05:13:52;;;;;;;;;35.33;29.67;;;;;;;;5059589;28;46083;-73
2023/07/02 05:16:17;;;;;;;;;32.67;29.67;;;;;;;;5059935;28;45384;-72
2023/07/02 05:18:42;;;;;;;;;37.33;30.00;;;;;;;;5077376;28;45554;-73
2023/07/02 05:21:07;;;;;;;;;30.67;28.00;;;;;;;;5079141;28;45354;-72
2023/07/02 05:23:32;;;;;;;;;30.00;28.00;;;;;;;;5078795;28;45597;-72
2023/07/02 05:25:58;;;;;;;;;38.33;30.00;;;;;;;;5079974;28;45340;-72
2023/07/02 05:28:23;;;;;;;;;38.00;29.67;;;;;;;;5062639;27;45491;-72
2023/07/02 05:30:49;;;;;;;;;34.00;30.33;;;;;;;;5100439;27;45407;-72
2023/07/02 05:33:14;;;;;;;;;36.33;30.67;;;;;;;;5099926;27;45219;-72
2023/07/02 05:35:39;;;;;;;;;34.00;29.67;;;;;;;;5099501;27;45461;-73
2023/07/02 05:38:04;;;;;;;;;35.33;28.00;;;;;;;;5100333;27;45329;-73
2023/07/02 05:40:30;;;;;;;;;34.33;30.00;;;;;;;;5100275;27;45152;-72
2023/07/02 05:42:56;;;;;;;;;33.00;30.33;;;;;;;;5081567;27;46907;-73
2023/07/02 05:45:21;;;;;;;;;33.33;29.67;;;;;;;;5099537;27;45519;-72
2023/07/02 05:47:46;;;;;;;;;41.00;31.67;;;;;;;;5059320;28;46969;-72
2023/07/02 05:50:11;;;;;;;;;31.00;28.00;;;;;;;;5076087;28;45562;-73
2023/07/02 05:52:36;;;;;;;;;33.00;29.00;;;;;;;;5079036;28;46003;-72
2023/07/02 05:55:02;;;;;;;;;37.00;30.00;;;;;;;;5079693;28;45322;-72
2023/07/02 05:57:27;;;;;;;;;29.00;28.00;;;;;;;;5078297;28;45617;-72
2023/07/02 05:59:52;;;;;;;;;35.67;29.67;;;;;;;;5079311;28;45631;-71
2023/07/02 06:02:17;;;;;;;;;33.67;30.00;;;;;;;;5061244;28;48268;-72
2023/07/02 06:04:42;;;;;;;;;34.67;30.67;;;;;;;;5079454;28;45341;-71
2023/07/02 06:07:07;;;;;;;;;30.67;27.67;;;;;;;;5079232;28;45200;-72
2023/07/02 06:09:33;;;;;;;;;34.50;29.00;;;;;;;;5079529;28;45207;-72
2023/07/02 06:11:58;;;;;;;;;30.67;27.67;;;;;;;;5060929;28;47581;-74
2023/07/02 06:14:25;;;;;;;;;35.33;28.67;;;;;;;;5062199;28;45246;-74
2023/07/02 06:16:50;;;;;;;;;34.00;29.33;;;;;;;;5080213;28;45308;-74
2023/07/02 06:19:15;;;;;;;;;30.33;28.00;;;;;;;;5080973;28;45282;-75
2023/07/02 06:21:41;;;;;;;;;35.67;30.00;;;;;;;;5062610;28;47487;-74
2023/07/02 06:24:06;;;;;;;;;33.33;27.67;;;;;;;;5079654;28;45354;-74
2023/07/02 06:26:32;;;;;;;;;31.67;27.33;;;;;;;;5060809;28;45479;-75
2023/07/02 06:29:00;;;;;;;;;31.00;29.00;;;;;;;;5067697;27;46080;-74
2023/07/02 06:31:25;;;;;;;;;30.33;27.67;;;;;;;;5100202;27;46087;-74
2023/07/02 06:33:50;;;;;;;;;33.67;30.00;;;;;;;;5100373;27;45211;-74
2023/07/02 06:36:17;;;;;;;;;34.67;29.33;;;;;;;;5101240;27;45240;-73
2023/07/02 06:38:42;;;;;;;;;31.33;28.67;;;;;;;;5099688;27;45733;-73
2023/07/02 06:41:07;;;;;;;;;32.33;28.67;;;;;;;;5099815;27;45335;-74
2023/07/02 06:43:33;;;;;;;;;29.33;28.00;;;;;;;;5100010;27;45238;-73
2023/07/02 06:45:59;;;;;;;;;31.00;29.00;;;;;;;;5099804;27;45511;-73
2023/07/02 06:48:24;;;;;;;;;33.67;28.00;;;;;;;;5099860;27;45427;-74
2023/07/02 06:50:49;;;;;;;;;34.00;30.00;;;;;;;;5101141;27;46441;-74
2023/07/02 06:53:15;;;;;;;;;33.67;28.00;;;;;;;;5084110;27;45361;-74
2023/07/02 06:55:40;;;;;;;;;30.00;27.67;;;;;;;;5103591;27;45353;-73
2023/07/02 06:58:06;;;;;;;;;37.67;28.67;;;;;;;;5102675;27;45499;-73
2023/07/02 07:00:32;;;;;;;;;34.67;28.67;;;;;;;;5084544;27;47307;-73
2023/07/02 07:03:00;;;;;;;;;30.67;27.33;;;;;;;;5084614;27;45367;-75
2023/07/02 07:05:25;;;;;;;;;30.67;28.00;;;;;;;;5102964;27;45284;-74
2023/07/02 07:07:50;;;;;;;;;30.33;29.00;;;;;;;;5102331;27;45392;-73
2023/07/02 07:10:16;;;;;;;;;28.67;25.00;;;;;;;;5102487;27;45488;-73
2023/07/02 07:12:41;;;;;;;;;29.00;27.33;;;;;;;;5082826;27;45862;-73
2023/07/02 07:15:06;;;;;;;;;28.67;26.67;;;;;;;;5083735;27;45350;-74
2023/07/02 07:17:31;;;;;;;;;33.00;28.33;;;;;;;;5102964;27;45234;-73
2023/07/02 07:19:57;;;;;;;;;28.00;27.00;;;;;;;;5098862;27;45520;-74
2023/07/02 07:22:22;;;;;;;;;33.00;29.00;;;;;;;;5061829;28;45248;-74
2023/07/02 07:24:47;;;;;;;;;35.00;30.67;;;;;;;;5043362;28;45356;-74
2023/07/02 07:27:12;;;;;;;;;27.33;25.33;;;;;;;;5061427;28;45272;-73
2023/07/02 07:29:37;;;;;;;;;31.33;29.33;;;;;;;;5082728;27;48173;-74
2023/07/02 07:32:03;;;;;;;;;34.00;28.67;;;;;;;;5102350;27;45402;-74
2023/07/02 07:34:28;;;;;;;;;32.33;28.33;;;;;;;;5102366;27;45288;-74
2023/07/02 07:36:53;;;;;;;;;30.67;28.00;;;;;;;;5083804;27;46318;-74
2023/07/02 07:39:18;;;;;;;;;30.33;27.33;;;;;;;;5102235;27;45389;-73
2023/07/02 07:41:46;;;;;;;;;33.00;29.67;;;;;;;;5101735;27;45201;-73
2023/07/02 07:44:11;;;;;;;;;36.33;31.67;;;;;;;;5101404;27;45315;-74
2023/07/02 07:46:36;;;;;;;;;31.67;29.67;;;;;;;;5083407;27;47686;-74
2023/07/02 07:49:02;;;;;;;;;32.00;28.67;;;;;;;;5102060;27;46048;-74
2023/07/02 07:51:30;;;;;;;;;33.33;28.67;;;;;;;;5083120;27;45263;-74
2023/07/02 07:53:55;;;;;;;;;41.33;31.00;;;;;;;;5102226;27;45281;-73
2023/07/02 07:56:21;;;;;;;;;31.67;28.00;;;;;;;;5101985;27;45247;-73
2023/07/02 07:58:46;;;;;;;;;33.33;30.00;;;;;;;;5101573;27;46419;-74
2023/07/02 08:01:11;;;;;;;;;31.00;27.67;;;;;;;;5081628;27;45720;-74
2023/07/02 08:03:39;;;;;;;;;32.67;28.33;;;;;;;;5080246;28;45388;-73
2023/07/02 08:06:04;;;;;;;;;30.00;29.00;;;;;;;;5081037;28;45401;-73
2023/07/02 08:08:30;;;;;;;;;31.33;29.67;;;;;;;;5081039;28;45302;-73
2023/07/02 08:10:55;;;;;;;;;34.00;28.67;;;;;;;;5081194;28;45329;-73
2023/07/02 08:13:20;;;;;;;;;31.00;29.00;;;;;;;;5081242;28;45267;-73
2023/07/02 08:15:45;;;;;;;;;33.33;30.00;;;;;;;;5081334;28;45236;-73
2023/07/02 08:18:13;;;;;;;;;31.33;28.00;;;;;;;;5080989;28;46317;-73
2023/07/02 08:20:38;;;;;;;;;33.00;29.00;;;;;;;;5080871;28;45365;-74
2023/07/02 08:23:03;;;;;;;;;35.00;29.00;;;;;;;;5081756;28;45599;-73
2023/07/02 08:25:28;;;;;;;;;27.00;27.00;;;;;;;;5080982;28;45485;-74
2023/07/02 08:27:53;;;;;;;;;30.67;27.00;;;;;;;;5080952;28;45511;-74
2023/07/02 08:30:19;;;;;;;;;31.67;29.67;;;;;;;;5098140;27;45333;-74
2023/07/02 08:32:45;;;;;;;;;27.33;26.67;;;;;;;;5101750;27;45328;-73
2023/07/02 08:35:10;;;;;;;;;29.67;27.67;;;;;;;;5083046;27;46197;-73
2023/07/02 08:37:35;;;;;;;;;29.33;27.00;;;;;;;;5098362;27;46272;-74
2023/07/02 08:40:00;;;;;;;;;30.33;28.33;;;;;;;;5079142;28;45301;-73
2023/07/02 08:42:29;;;;;;;;;32.00;25.67;;;;;;;;5061983;28;45360;-73
2023/07/02 08:44:55;;;;;;;;;27.67;26.67;;;;;;;;5061342;28;46332;-72
2023/07/02 08:47:21;;;;;;;;;29.33;26.67;;;;;;;;5080498;28;46229;-73
2023/07/02 08:49:47;;;;;;;;;32.67;29.67;;;;;;;;5062405;28;45322;-73
2023/07/02 08:52:12;;;;;;;;;31.67;29.67;;;;;;;;5080695;28;45353;-74
2023/07/02 08:54:38;;;;;;;;;27.33;24.67;;;;;;;;5080418;28;45444;-74
2023/07/02 08:57:05;;;;;;;;;29.67;26.67;;;;;;;;5062050;28;45535;-73
2023/07/02 08:59:30;;;;;;;;;31.00;27.67;;;;;;;;5062205;28;45376;-73
2023/07/02 09:01:55;;;;;;;;;28.00;26.67;;;;;;;;5062135;28;45324;-74
2023/07/02 09:04:23;;;;;;;;;28.00;26.00;;;;;;;;5080058;28;45494;-74
2023/07/02 09:06:48;;;;;;;;;25.33;24.67;;;;;;;;5080293;28;46101;-73
2023/07/02 09:09:14;;;;;;;;;25.67;25.00;;;;;;;;5080387;28;45286;-73
2023/07/02 09:11:51;;;;;;;;;30.00;27.00;;;;;;;;5080256;28;45258;-72
2023/07/02 09:14:26;;;;;;;;;28.00;26.67;;;;;;;;5079520;28;45351;-72
2023/07/02 09:17:01;;;;;;;;;29.33;27.33;;;;;;;;5079860;28;45537;-72
2023/07/02 09:19:26;;;;;;;;;26.33;25.33;;;;;;;;5080155;28;45451;-72
2023/07/02 09:21:51;;;;;;;;;24.67;24.00;;;;;;;;5080150;28;45381;-72
2023/07/02 09:24:21;;;;;;;;;27.67;25.67;;;;;;;;5080052;28;45264;-73
2023/07/02 09:26:49;;;;;;;;;25.00;24.00;;;;;;;;5077699;28;46081;-73
2023/07/02 09:29:16;;;;;;;;;25.33;23.67;;;;;;;;5078896;27;45839;-74
2023/07/02 09:31:46;;;;;;;;;23.00;20.67;;;;;;;;5075334;28;45441;-73
2023/07/02 09:34:11;;;;;;;;;27.33;25.33;;;;;;;;5061189;28;45534;-73
2023/07/02 09:36:40;;;;;;;;;23.67;22.67;;;;;;;;5060290;28;48096;-73
2023/07/02 09:39:06;;;;;;;;;28.00;27.00;;;;;;;;5079808;28;45553;-73
2023/07/02 09:41:31;;;;;;;;;30.33;26.67;;;;;;;;5061795;28;45381;-73
2023/07/02 09:43:56;;;;;;;;;26.33;25.67;;;;;;;;5079379;28;45671;-74
2023/07/02 09:46:22;;;;;;;;;26.67;25.67;;;;;;;;5061098;28;48018;-73
2023/07/02 09:48:50;;;;;;;;;22.67;20.67;;;;;;;;5061531;28;45303;-73
2023/07/02 09:51:16;;;;;;;;;18.67;18.67;;;;;;;;5079476;28;45389;-73
2023/07/02 09:53:41;;;;;;;;;24.00;22.00;;;;;;;;5079731;28;45326;-75
2023/07/02 09:56:07;;;;;;;;;23.00;22.33;;;;;;;;5059774;28;48431;-75
2023/07/02 09:58:33;;;;;;;;;20.67;20.33;;;;;;;;5079295;28;45229;-74
2023/07/02 10:00:58;;;;;;;;;26.33;22.33;;;;;;;;5079711;28;45713;-75
2023/07/02 10:03:30;;;;;;;;;24.67;23.67;;;;;;;;5061054;28;47355;-73
2023/07/02 10:06:05;;;;;;;;;23.33;22.00;;;;;;;;5079431;28;45373;-74
2023/07/02 10:08:30;;;;;;;;;29.33;27.67;;;;;;;;5079404;28;45341;-74
2023/07/02 10:11:08;;;;;;;;;32.00;28.67;;;;;;;;5061085;28;45322;-75
2023/07/02 10:13:34;;;;;;;;;33.33;29.00;;;;;;;;5079161;28;46186;-75
2023/07/02 10:16:06;;;;;;;;;34.67;29.00;;;;;;;;5059735;28;46507;-75
2023/07/02 10:18:31;;;;;;;;;34.67;31.00;;;;;;;;5079076;28;45367;-74
2023/07/02 10:20:56;;;;;;;;;26.00;24.33;;;;;;;;5079341;28;45668;-75
2023/07/02 10:23:32;;;;;;;;;25.00;23.67;;;;;;;;5078328;28;45271;-74
2023/07/02 10:25:58;;;;;;;;;23.67;22.33;;;;;;;;5062634;28;48434;-75
2023/07/02 10:28:26;;;;;;;;;27.67;26.00;;;;;;;;5063968;28;45745;-75
2023/07/02 10:30:53;;;;;;;;;21.33;21.33;;;;;;;;5082946;28;45348;-74
2023/07/02 10:33:18;;;;;;;;;25.33;23.00;;;;;;;;5082434;28;45390;-74
2023/07/02 10:35:49;;;;;;;;;30.33;27.67;;;;;;;;5081756;28;46427;-74
2023/07/02 10:38:20;;;;;;;;;27.33;25.33;;;;;;;;5082745;28;45242;-74
2023/07/02 10:40:46;;;;;;;;;24.00;22.67;;;;;;;;5063273;28;45300;-76
2023/07/02 10:43:11;;;;;;;;;26.67;25.67;;;;;;;;5063600;28;46077;-75
2023/07/02 10:45:37;;;;;;;;;21.33;21.00;;;;;;;;5082273;28;45277;-78
2023/07/02 10:48:03;;;;;;;;;22.00;21.00;;;;;;;;5065031;28;45316;-76
2023/07/02 10:50:30;;;;;;;;;22.67;22.33;;;;;;;;5083929;28;45299;-79
2023/07/02 10:52:55;;;;;;;;;23.33;22.67;;;;;;;;5081976;28;45566;-75
2023/07/02 10:55:24;;;;;;;;;24.00;21.33;;;;;;;;5080203;28;46310;-74
2023/07/02 10:57:53;;;;;;;;;23.67;21.67;;;;;;;;5061252;28;46012;-73
2023/07/02 11:00:19;;;;;;;;;25.00;24.00;;;;;;;;5083898;28;45373;-76
2023/07/02 11:02:44;;;;;;;;;24.33;23.33;;;;;;;;5066584;28;46862;-74
2023/07/02 11:05:13;;;;;;;;;24.67;23.00;;;;;;;;5082288;28;45526;-75
2023/07/02 11:07:39;;;;;;;;;25.00;23.00;;;;;;;;5083210;28;45409;-73
2023/07/02 11:10:04;;;;;;;;;25.67;23.33;;;;;;;;5065310;28;45475;-75
2023/07/02 11:12:30;;;;;;;;;23.67;22.67;;;;;;;;5065602;28;46179;-74
2023/07/02 11:15:06;;;;;;;;;25.67;23.33;;;;;;;;5082927;28;46104;-74
2023/07/02 11:17:31;;;;;;;;;25.00;23.33;;;;;;;;5083695;28;45415;-73
2023/07/02 11:19:56;;;;;;;;;25.67;25.33;;;;;;;;5081703;28;45478;-73
2023/07/02 11:22:30;;;;;;;;;24.00;22.33;;;;;;;;5081575;28;45371;-74
2023/07/02 11:24:56;;;;;;;;;24.00;23.33;;;;;;;;5081754;28;46424;-75
2023/07/02 11:27:22;;;;;;;;;24.33;23.00;;;;;;;;5062763;28;45434;-75
2023/07/02 11:29:47;;;;;;;;;23.00;21.67;;;;;;;;5072244;27;45520;-73
2023/07/02 11:32:12;;;;;;;;;22.67;21.00;;;;;;;;5062387;28;45439;-73
2023/07/02 11:34:38;;;;;;;;;18.67;18.00;;;;;;;;5080039;28;45618;-75
2023/07/02 11:37:04;;;;;;;;;22.00;22.00;;;;;;;;5077975;28;45287;-76
2023/07/02 11:39:29;;;;;;;;;26.33;24.00;;;;;;;;5080458;28;45729;-76
2023/07/02 11:41:55;;;;;;;;;25.00;24.00;;;;;;;;5080587;28;45295;-75
2023/07/02 11:44:20;;;;;;;;;21.33;19.67;;;;;;;;5039449;28;47420;-77
2023/07/02 11:46:46;;;;;;;;;23.00;22.67;;;;;;;;5040961;28;45351;-76
2023/07/02 11:49:12;;;;;;;;;26.00;23.67;;;;;;;;5041336;28;45494;-76
2023/07/02 11:51:38;;;;;;;;;27.33;22.33;;;;;;;;5039297;28;46119;-77
2023/07/02 11:54:04;;;;;;;;;24.67;23.33;;;;;;;;5040103;28;45764;-78
2023/07/02 11:56:29;;;;;;;;;25.67;25.00;;;;;;;;5039964;28;45420;-75
2023/07/02 11:58:55;;;;;;;;;28.33;25.67;;;;;;;;5039155;28;45394;-75
2023/07/02 12:01:20;;;;;;;;;23.67;22.00;;;;;;;;5040181;28;46459;-75
2023/07/02 12:03:45;;;;;;;;;24.33;20.67;;;;;;;;5043716;28;48190;-74
2023/07/02 12:06:10;;;;;;;;;23.67;23.67;;;;;;;;5044034;28;45701;-77
2023/07/02 12:08:36;;;;;;;;;27.33;26.00;;;;;;;;5041660;28;45303;-77
2023/07/02 12:11:01;;;;;;;;;22.67;22.67;;;;;;;;5041341;28;45438;-76
2023/07/02 12:13:26;;;;;;;;;24.33;21.67;;;;;;;;5041413;28;45347;-74
2023/07/02 12:15:51;;;;;;;;;26.67;25.33;;;;;;;;5040432;28;45285;-74
2023/07/02 12:18:17;;;;;;;;;22.67;22.00;;;;;;;;5041020;28;45269;-75
2023/07/02 12:20:42;;;;;;;;;17.67;17.67;;;;;;;;5040884;28;45516;-75
2023/07/02 12:23:07;;;;;;;;;24.33;22.67;;;;;;;;5040042;28;46618;-75
2023/07/02 12:25:32;;;;;;;;;25.33;23.67;;;;;;;;5032103;28;45979;-76
2023/07/02 12:27:58;;;;;;;;;19.33;18.67;;;;;;;;5053851;28;45616;-75
2023/07/02 12:30:23;;;;;;;;;24.67;21.00;;;;;;;;5053419;28;46539;-74
2023/07/02 12:32:48;;;;;;;;;21.67;21.00;;;;;;;;5039853;28;46261;-75
2023/07/02 12:35:13;;;;;;;;;25.67;23.67;;;;;;;;5038314;28;45387;-74
2023/07/02 12:37:46;;;;;;;;;20.67;20.67;;;;;;;;5038403;28;45583;-74
2023/07/02 12:40:12;;;;;;;;;24.00;23.33;;;;;;;;5036548;28;45346;-74
2023/07/02 12:42:37;;;;;;;;;25.00;25.00;;;;;;;;5049130;28;45234;-73
2023/07/02 12:45:02;;;;;;;;;23.33;23.00;;;;;;;;5061895;28;46385;-72
2023/07/02 12:47:31;;;;;;;;;24.00;22.33;;;;;;;;5080121;28;45192;-73
2023/07/02 12:49:56;;;;;;;;;22.00;21.00;;;;;;;;5060649;28;46710;-75
2023/07/02 12:52:21;;;;;;;;;20.33;19.67;;;;;;;;5080347;28;45399;-74
2023/07/02 12:54:49;;;;;;;;;19.67;19.33;;;;;;;;5080584;28;45313;-74
2023/07/02 12:57:14;;;;;;;;;20.00;20.00;;;;;;;;5080654;28;45347;-76
2023/07/02 12:59:39;;;;;;;;;17.67;17.33;;;;;;;;5080456;28;45216;-75
2023/07/02 13:02:05;;;;;;;;;25.00;22.33;;;;;;;;5080360;28;45496;-74
2023/07/02 13:04:30;;;;;;;;;21.67;20.33;;;;;;;;5080311;28;45326;-74
2023/07/02 13:06:56;;;;;;;;;22.00;22.00;;;;;;;;5080520;28;45146;-75
2023/07/02 13:09:21;;;;;;;;;21.33;20.00;;;;;;;;5080511;28;45223;-75
2023/07/02 13:11:46;;;;;;;;;21.67;21.33;;;;;;;;5071345;28;46400;-75
2023/07/02 13:14:11;;;;;;;;;22.00;19.67;;;;;;;;5080098;28;45441;-74
2023/07/02 13:16:36;;;;;;;;;24.67;23.33;;;;;;;;5078915;28;45233;-74
2023/07/02 13:19:02;;;;;;;;;25.00;24.33;;;;;;;;5079644;28;45227;-74
2023/07/02 13:21:30;;;;;;;;;18.67;18.00;;;;;;;;5078089;28;45720;-74
2023/07/02 13:23:56;;;;;;;;;22.67;21.67;;;;;;;;5079475;28;45409;-74
2023/07/02 13:26:21;;;;;;;;;18.67;17.67;;;;;;;;5080059;28;45385;-76
2023/07/02 13:28:47;;;;;;;;;18.67;18.33;;;;;;;;5084314;27;45522;-73
2023/07/02 13:31:12;;;;;;;;;20.00;20.00;;;;;;;;5101222;27;46324;-75
2023/07/02 13:33:39;;;;;;;;;19.67;19.67;;;;;;;;5100354;27;45567;-73
2023/07/02 13:36:04;;;;;;;;;25.00;22.00;;;;;;;;5098743;27;45383;-73
2023/07/02 13:38:29;;;;;;;;;17.00;17.00;;;;;;;;5077699;28;45284;-74
2023/07/02 13:40:55;;;;;;;;;14.33;14.33;;;;;;;;5078331;28;45461;-74
2023/07/02 13:43:20;;;;;;;;;20.33;19.67;;;;;;;;5080469;28;45334;-75
2023/07/02 13:45:45;;;;;;;;;19.33;17.00;;;;;;;;5081643;28;45370;-73
2023/07/02 13:48:10;;;;;;;;;20.00;19.67;;;;;;;;5077673;28;45443;-74
2023/07/02 13:50:35;;;;;;;;;19.33;19.00;;;;;;;;5079525;28;45412;-75
2023/07/02 13:53:01;;;;;;;;;20.33;18.67;;;;;;;;5079674;28;45212;-75
2023/07/02 13:55:30;;;;;;;;;19.00;18.33;;;;;;;;5080411;28;45153;-75
2023/07/02 13:57:59;;;;;;;;;17.33;17.00;;;;;;;;5079662;28;45411;-75
2023/07/02 14:00:25;;;;;;;;;19.00;17.67;;;;;;;;5083448;28;46127;-75
2023/07/02 14:02:50;;;;;;;;;20.00;18.33;;;;;;;;5082989;28;45724;-75
2023/07/02 14:05:15;;;;;;;;;19.00;18.00;;;;;;;;5065089;28;45332;-73
2023/07/02 14:07:40;;;;;;;;;16.00;16.00;;;;;;;;5083837;28;45212;-72